Daily Tabular Data
[Select Refresh to Update]


2/15/18
Time         Wind Dir   Wind Spd  Wind Gust     Hum In   Humidity    Temp In       Temp  Raw Barom   Tot Rain Wind Chill Heat Ix In Heat Index  Dew Point  DailyRain   HourRain   RainRate
                            mph        mph          %          %         F         F         in         in         F         F         F         F         in         in      in/hr
12:00am            86          0          0         38         74       70.6       54.4      29.26       1.93       54.4       70.4       57.8       46.3       0.00       0.00      0.000
12:30am            69          0          1         38         76       70.5       53.4      29.25       1.93       53.4       70.3       57.1       46.0       0.00       0.00      0.000
1:00am             70          0          1         38         78       70.3       53.8      29.25       1.93       53.8       70.1       57.8       47.1       0.00       0.00      0.000
1:30am             79          0          1         38         78       70.2       53.5      29.25       1.93       53.5       70.0       57.5       46.8       0.00       0.00      0.000
2:00am             80          0          0         38         78       70.0       53.4      29.25       1.93       53.4       69.8       57.4       46.7       0.00       0.00      0.000
2:30am             96          1          1         38         80       70.0       52.8      29.24       1.93       52.8       69.8       57.0       46.8       0.00       0.00      0.000
3:00am             96          0          1         38         78       69.9       53.7      29.23       1.93       53.7       69.7       57.7       47.0       0.00       0.00      0.000
3:30am             72          0          1         38         76       69.8       54.2      29.24       1.93       54.2       69.6       57.9       46.8       0.00       0.00      0.000
4:00am             99          0          2         38         76       70.1       54.0      29.23       1.93       54.0       69.9       57.7       46.6       0.00       0.00      0.000
4:30am             99          0          0         38         76       69.6       54.0      29.23       1.93       54.0       69.4       57.7       46.6       0.00       0.00     -0.010
5:00am             99          0          0         38         76       69.5       54.0      29.23       1.93       54.0       69.3       57.7       46.6       0.00       0.00     -0.010
5:30am             99          0          0         38         76       69.4       54.0      29.22       1.93       54.0       69.2       57.7       46.6       0.00       0.00     -0.010
6:00am             99          0          0         38         76       69.2       54.0      29.23       1.93       54.0       69.0       57.7       46.6       0.00       0.00     -0.010
6:30am             99          0          0         38         76       69.2       54.0      29.25       1.93       54.0       69.0       57.7       46.6       0.00       0.00     -0.010
7:00am             99          0          0         38         76       69.0       54.0      29.25       1.93       54.0       68.8       57.7       46.6       0.00       0.00     -0.010
7:30am             99          0          0         38         76       68.9       54.0      29.25       1.93       54.0       68.7       57.7       46.6       0.00       0.00     -0.010
8:00am            296          0          1         38         69       68.9       57.1      29.26       1.93       57.1       68.7       59.9       47.0       0.00       0.00      0.000
8:30am            276          4          6         38         68       69.4       58.1      29.27       1.93       58.1       69.2       60.8       47.6       0.00       0.00      0.000
9:00am            263          0          8         38         69       69.4       59.3      29.27       1.93       59.3       69.2       62.1       49.1       0.00       0.00      0.000
9:30am            261          1          6         36         67       71.2       60.4      29.27       1.93       60.4       70.8       63.0       49.4       0.00       0.00      0.000
10:00am           262          2          8         37         63       70.4       61.3      29.27       1.93       61.3       70.1       63.4       48.6       0.00       0.00      0.000
10:30am           265          3          8         37         59       70.1       63.7      29.27       1.93       63.7       69.8       65.4       49.1       0.00       0.00      0.000
11:00am           252          0          9         38         54       70.0       65.7      29.26       1.93       65.7       69.8       66.9       48.6       0.00       0.00      0.000
11:30am           262          8         11         38         47       70.0       67.6      29.24       1.93       67.6       69.8       68.1       46.7       0.00       0.00      0.000
12:00pm            57          0         12         38         27       70.1       70.5      29.22       1.93       70.5       69.9       69.5       34.9       0.00       0.00      0.000
12:30pm            96          4         19         37         25       70.3       71.9      29.21       1.93       71.9       70.0       70.8       34.2       0.00       0.00      0.000
1:00pm             99          4          9         37         26       70.3       72.5      29.20       1.93       72.5       70.0       71.4       35.7       0.00       0.00      0.000
1:30pm            263          0         16         37         24       70.5       72.9      29.20       1.93       72.9       70.2       71.7       34.0       0.00       0.00      0.000
2:00pm            267          8         13         37         43       70.6       68.3      29.19       1.93       68.3       70.3       68.5       45.0       0.00       0.00      0.000
2:30pm            257          2         13         37         40       70.8       68.2      29.19       1.93       68.2       70.5       68.1       43.0       0.00       0.00      0.000
3:00pm            260          0          9         37         39       71.0       70.2      29.20       1.93       70.2       70.7       70.0       44.1       0.00       0.00      0.000
3:30pm            263          2         10         37         37       71.0       68.7      29.20       1.93       68.7       70.7       68.4       41.4       0.00       0.00      0.000
4:00pm            276          4          9         37         36       71.2       68.3      29.21       1.93       68.3       70.9       67.9       40.3       0.00       0.00      0.000
4:30pm            271          3         10         37         37       71.3       67.8      29.21       1.93       67.8       71.0       67.5       40.6       0.00       0.00      0.000
5:00pm            275          3          9         37         42       71.4       66.1      29.22       1.93       66.1       71.1       66.2       42.4       0.00       0.00      0.000
5:30pm            271          3          9         37         43       71.4       64.2      29.22       1.93       64.2       71.1       64.4       41.3       0.00       0.00      0.000
6:00pm            272          2          7         37         48       71.5       62.8      29.23       1.93       62.8       71.2       63.4       42.8       0.00       0.00      0.000
6:30pm            273          0          3         37         57       71.5       61.1      29.24       1.93       61.1       71.2       62.6       45.8       0.00       0.00      0.000
7:00pm            290          2          4         37         50       71.4       60.7      29.25       1.93       60.7       71.1       61.5       42.0       0.00       0.00      0.000
7:30pm            283          1          7         37         52       71.4       60.5      29.26       1.93       60.5       71.1       61.5       42.8       0.00       0.00      0.000
8:00pm            110          2          4         37         52       71.4       59.5      29.27       1.93       59.5       71.1       60.5       41.9       0.00       0.00      0.000
8:30pm             10          0          3         37         50       71.4       60.1      29.29       1.93       60.1       71.1       60.9       41.4       0.00       0.00      0.000
9:00pm             96          0          2         37         52       71.4       58.3      29.30       1.93       58.3       71.1       59.3       40.8       0.00       0.00      0.000
9:30pm            295          1          5         37         34       71.3       61.7      29.30       1.93       61.7       71.0       61.2       33.1       0.00       0.00      0.000
10:00pm           321          2          8         36         30       71.3       62.5      29.31       1.93       62.5       70.9       61.7       30.7       0.00       0.00      0.000
10:30pm           316          1         10         36         32       71.2       61.9      29.31       1.93       61.9       70.8       61.2       31.7       0.00       0.00      0.000
11:00pm            26          1          8         35         30       71.2       60.9      29.31       1.93       60.9       70.7       60.1       29.3       0.00       0.00      0.000
11:30pm           290          1          4         35         28       71.2       60.6      29.30       1.93       60.6       70.7       59.7       27.3       0.00       0.00      0.000